sensor_id;sensor_type;location;lat;lon;timestamp;P1;durP1;ratioP1;P2;durP2;ratioP2
69594;SDS011;56800;52.142;5.364;2022-10-31T00:00:46;13.88;;;7.47;;
69594;SDS011;56800;52.142;5.364;2022-10-31T00:03:13;15.18;;;7.45;;
69594;SDS011;56800;52.142;5.364;2022-10-31T00:05:41;15.02;;;7.75;;
69594;SDS011;56800;52.142;5.364;2022-10-31T00:08:13;16.57;;;7.80;;
69594;SDS011;56800;52.142;5.364;2022-10-31T00:10:41;13.40;;;6.80;;
69594;SDS011;56800;52.142;5.364;2022-10-31T00:13:09;13.48;;;6.25;;
69594;SDS011;56800;52.142;5.364;2022-10-31T00:15:37;14.50;;;6.80;;
69594;SDS011;56800;52.142;5.364;2022-10-31T00:18:05;12.25;;;6.80;;
69594;SDS011;56800;52.142;5.364;2022-10-31T00:20:32;13.50;;;6.10;;
69594;SDS011;56800;52.142;5.364;2022-10-31T00:22:59;14.80;;;6.55;;
69594;SDS011;56800;52.142;5.364;2022-10-31T00:25:28;15.68;;;6.85;;
69594;SDS011;56800;52.142;5.364;2022-10-31T00:27:55;15.57;;;6.40;;
69594;SDS011;56800;52.142;5.364;2022-10-31T00:30:22;13.13;;;6.57;;
69594;SDS011;56800;52.142;5.364;2022-10-31T00:32:49;14.97;;;7.03;;
69594;SDS011;56800;52.142;5.364;2022-10-31T00:35:15;15.68;;;7.05;;
69594;SDS011;56800;52.142;5.364;2022-10-31T00:37:42;16.48;;;6.53;;
69594;SDS011;56800;52.142;5.364;2022-10-31T00:40:09;16.25;;;7.15;;
69594;SDS011;56800;52.142;5.364;2022-10-31T00:42:36;12.95;;;7.10;;
69594;SDS011;56800;52.142;5.364;2022-10-31T00:45:03;14.53;;;7.17;;
69594;SDS011;56800;52.142;5.364;2022-10-31T00:47:29;13.70;;;7.15;;
69594;SDS011;56800;52.142;5.364;2022-10-31T00:49:56;17.10;;;7.40;;
69594;SDS011;56800;52.142;5.364;2022-10-31T00:52:22;18.85;;;7.93;;
69594;SDS011;56800;52.142;5.364;2022-10-31T00:54:49;12.57;;;7.53;;
69594;SDS011;56800;52.142;5.364;2022-10-31T00:57:15;14.20;;;7.23;;
69594;SDS011;56800;52.142;5.364;2022-10-31T00:59:42;11.80;;;7.32;;
69594;SDS011;56800;52.142;5.364;2022-10-31T01:02:09;13.57;;;7.82;;
69594;SDS011;56800;52.142;5.364;2022-10-31T01:04:35;15.02;;;8.13;;
69594;SDS011;56800;52.142;5.364;2022-10-31T01:07:02;19.27;;;8.38;;
69594;SDS011;56800;52.142;5.364;2022-10-31T01:09:28;16.47;;;8.20;;
69594;SDS011;56800;52.142;5.364;2022-10-31T01:11:55;14.90;;;7.63;;
69594;SDS011;56800;52.142;5.364;2022-10-31T01:14:22;12.63;;;7.43;;
69594;SDS011;56800;52.142;5.364;2022-10-31T01:16:48;14.00;;;7.75;;
69594;SDS011;56800;52.142;5.364;2022-10-31T01:19:15;15.35;;;7.32;;
69594;SDS011;56800;52.142;5.364;2022-10-31T01:21:41;14.23;;;7.43;;
69594;SDS011;56800;52.142;5.364;2022-10-31T01:24:08;13.00;;;7.35;;
69594;SDS011;56800;52.142;5.364;2022-10-31T01:26:35;12.90;;;7.18;;
69594;SDS011;56800;52.142;5.364;2022-10-31T01:29:05;14.93;;;7.28;;
69594;SDS011;56800;52.142;5.364;2022-10-31T01:31:34;12.95;;;7.20;;
69594;SDS011;56800;52.142;5.364;2022-10-31T01:34:02;16.53;;;6.80;;
69594;SDS011;56800;52.142;5.364;2022-10-31T01:36:33;14.98;;;6.40;;
69594;SDS011;56800;52.142;5.364;2022-10-31T01:39:06;24.48;;;6.88;;
69594;SDS011;56800;52.142;5.364;2022-10-31T01:41:39;14.35;;;6.43;;
69594;SDS011;56800;52.142;5.364;2022-10-31T01:46:41;12.50;;;6.10;;
69594;SDS011;56800;52.142;5.364;2022-10-31T01:49:18;12.90;;;6.15;;
69594;SDS011;56800;52.142;5.364;2022-10-31T01:52:07;8.60;;;5.30;;
69594;SDS011;56800;52.142;5.364;2022-10-31T01:54:51;11.55;;;5.95;;
69594;SDS011;56800;52.142;5.364;2022-10-31T01:57:24;11.18;;;5.93;;
69594;SDS011;56800;52.142;5.364;2022-10-31T01:59:53;13.37;;;6.10;;
69594;SDS011;56800;52.142;5.364;2022-10-31T02:02:23;13.60;;;6.07;;
69594;SDS011;56800;52.142;5.364;2022-10-31T02:04:51;12.60;;;6.30;;
69594;SDS011;56800;52.142;5.364;2022-10-31T02:07:24;13.55;;;6.32;;
69594;SDS011;56800;52.142;5.364;2022-10-31T02:09:56;11.05;;;6.32;;
69594;SDS011;56800;52.142;5.364;2022-10-31T02:12:23;13.50;;;6.20;;
69594;SDS011;56800;52.142;5.364;2022-10-31T02:14:51;11.15;;;6.45;;
69594;SDS011;56800;52.142;5.364;2022-10-31T02:17:18;18.33;;;6.93;;
69594;SDS011;56800;52.142;5.364;2022-10-31T02:20:00;13.25;;;6.10;;
69594;SDS011;56800;52.142;5.364;2022-10-31T02:22:40;17.20;;;6.60;;
69594;SDS011;56800;52.142;5.364;2022-10-31T02:28:30;19.95;;;6.90;;
69594;SDS011;56800;52.142;5.364;2022-10-31T02:34:05;17.98;;;7.30;;
69594;SDS011;56800;52.142;5.364;2022-10-31T02:36:48;14.90;;;7.28;;
69594;SDS011;56800;52.142;5.364;2022-10-31T02:39:26;12.83;;;7.00;;
69594;SDS011;56800;52.142;5.364;2022-10-31T02:44:57;15.93;;;7.55;;
69594;SDS011;56800;52.142;5.364;2022-10-31T02:47:32;19.00;;;6.97;;
69594;SDS011;56800;52.142;5.364;2022-10-31T02:50:03;14.27;;;7.30;;
69594;SDS011;56800;52.142;5.364;2022-10-31T02:52:34;13.40;;;7.23;;
69594;SDS011;56800;52.142;5.364;2022-10-31T02:55:09;17.15;;;7.43;;
69594;SDS011;56800;52.142;5.364;2022-10-31T02:57:37;12.13;;;7.35;;
69594;SDS011;56800;52.142;5.364;2022-10-31T03:00:08;13.93;;;7.07;;
69594;SDS011;56800;52.142;5.364;2022-10-31T03:05:53;15.03;;;7.43;;
69594;SDS011;56800;52.142;5.364;2022-10-31T03:11:03;18.85;;;8.07;;
69594;SDS011;56800;52.142;5.364;2022-10-31T03:13:46;20.05;;;8.13;;
69594;SDS011;56800;52.142;5.364;2022-10-31T03:16:33;16.10;;;8.00;;
69594;SDS011;56800;52.142;5.364;2022-10-31T03:19:10;16.63;;;7.73;;
69594;SDS011;56800;52.142;5.364;2022-10-31T03:24:16;18.50;;;8.00;;
69594;SDS011;56800;52.142;5.364;2022-10-31T03:26:46;14.98;;;7.63;;
69594;SDS011;56800;52.142;5.364;2022-10-31T03:29:16;15.68;;;7.97;;
69594;SDS011;56800;52.142;5.364;2022-10-31T03:31:54;17.60;;;8.80;;
69594;SDS011;56800;52.142;5.364;2022-10-31T03:34:25;18.20;;;8.40;;
69594;SDS011;56800;52.142;5.364;2022-10-31T03:36:54;15.07;;;7.80;;
69594;SDS011;56800;52.142;5.364;2022-10-31T03:39:23;14.23;;;8.65;;
69594;SDS011;56800;52.142;5.364;2022-10-31T03:41:59;18.30;;;8.57;;
69594;SDS011;56800;52.142;5.364;2022-10-31T03:44:32;16.03;;;9.20;;
69594;SDS011;56800;52.142;5.364;2022-10-31T03:47:00;16.63;;;9.45;;
69594;SDS011;56800;52.142;5.364;2022-10-31T03:49:29;16.85;;;8.65;;
69594;SDS011;56800;52.142;5.364;2022-10-31T03:52:02;23.35;;;10.75;;
69594;SDS011;56800;52.142;5.364;2022-10-31T03:54:38;21.17;;;9.93;;
69594;SDS011;56800;52.142;5.364;2022-10-31T03:57:25;16.20;;;9.53;;
69594;SDS011;56800;52.142;5.364;2022-10-31T03:59:58;20.13;;;10.57;;
69594;SDS011;56800;52.142;5.364;2022-10-31T04:02:30;17.25;;;9.93;;
69594;SDS011;56800;52.142;5.364;2022-10-31T04:04:59;18.60;;;10.48;;
69594;SDS011;56800;52.142;5.364;2022-10-31T04:07:28;19.45;;;11.27;;
69594;SDS011;56800;52.142;5.364;2022-10-31T04:09:58;17.10;;;10.53;;
69594;SDS011;56800;52.142;5.364;2022-10-31T04:12:28;20.05;;;11.23;;
69594;SDS011;56800;52.142;5.364;2022-10-31T04:14:56;20.67;;;11.55;;
69594;SDS011;56800;52.142;5.364;2022-10-31T04:17:24;22.45;;;11.60;;
69594;SDS011;56800;52.142;5.364;2022-10-31T04:19:55;19.50;;;10.45;;
69594;SDS011;56800;52.142;5.364;2022-10-31T04:22:26;22.17;;;11.47;;
69594;SDS011;56800;52.142;5.364;2022-10-31T04:24:52;19.67;;;11.50;;
69594;SDS011;56800;52.142;5.364;2022-10-31T04:27:19;20.40;;;11.10;;
69594;SDS011;56800;52.142;5.364;2022-10-31T04:29:45;17.17;;;10.77;;
69594;SDS011;56800;52.142;5.364;2022-10-31T04:32:16;28.38;;;11.15;;
69594;SDS011;56800;52.142;5.364;2022-10-31T04:34:42;17.07;;;10.87;;
69594;SDS011;56800;52.142;5.364;2022-10-31T04:37:09;19.13;;;11.25;;
69594;SDS011;56800;52.142;5.364;2022-10-31T04:39:35;27.30;;;11.63;;
69594;SDS011;56800;52.142;5.364;2022-10-31T04:42:02;18.75;;;10.75;;
69594;SDS011;56800;52.142;5.364;2022-10-31T04:44:29;18.58;;;11.05;;
69594;SDS011;56800;52.142;5.364;2022-10-31T04:46:55;19.93;;;10.70;;
69594;SDS011;56800;52.142;5.364;2022-10-31T04:49:22;18.33;;;11.10;;
69594;SDS011;56800;52.142;5.364;2022-10-31T04:51:48;19.40;;;10.85;;
69594;SDS011;56800;52.142;5.364;2022-10-31T04:54:15;17.38;;;11.05;;
69594;SDS011;56800;52.142;5.364;2022-10-31T04:56:42;22.70;;;12.07;;
69594;SDS011;56800;52.142;5.364;2022-10-31T04:59:08;24.13;;;11.70;;
69594;SDS011;56800;52.142;5.364;2022-10-31T05:01:35;17.65;;;10.85;;
69594;SDS011;56800;52.142;5.364;2022-10-31T05:04:01;22.73;;;11.40;;
69594;SDS011;56800;52.142;5.364;2022-10-31T05:06:28;24.58;;;11.80;;
69594;SDS011;56800;52.142;5.364;2022-10-31T05:08:55;22.02;;;11.38;;
69594;SDS011;56800;52.142;5.364;2022-10-31T05:11:21;17.60;;;10.33;;
69594;SDS011;56800;52.142;5.364;2022-10-31T05:13:48;16.42;;;10.80;;
69594;SDS011;56800;52.142;5.364;2022-10-31T05:16:14;19.75;;;10.48;;
69594;SDS011;56800;52.142;5.364;2022-10-31T05:18:41;18.00;;;10.98;;
69594;SDS011;56800;52.142;5.364;2022-10-31T05:21:08;19.30;;;11.23;;
69594;SDS011;56800;52.142;5.364;2022-10-31T05:23:34;18.80;;;11.20;;
69594;SDS011;56800;52.142;5.364;2022-10-31T05:26:01;29.17;;;11.43;;
69594;SDS011;56800;52.142;5.364;2022-10-31T05:28:27;18.98;;;10.65;;
69594;SDS011;56800;52.142;5.364;2022-10-31T05:30:54;21.13;;;11.27;;
69594;SDS011;56800;52.142;5.364;2022-10-31T05:33:20;24.60;;;11.30;;
69594;SDS011;56800;52.142;5.364;2022-10-31T05:35:47;20.40;;;11.07;;
69594;SDS011;56800;52.142;5.364;2022-10-31T05:38:14;24.15;;;11.82;;
69594;SDS011;56800;52.142;5.364;2022-10-31T05:40:41;26.27;;;11.85;;
69594;SDS011;56800;52.142;5.364;2022-10-31T05:43:07;24.70;;;11.95;;
69594;SDS011;56800;52.142;5.364;2022-10-31T05:45:34;24.65;;;12.52;;
69594;SDS011;56800;52.142;5.364;2022-10-31T05:48:01;33.53;;;13.57;;
69594;SDS011;56800;52.142;5.364;2022-10-31T05:50:29;28.77;;;13.52;;
69594;SDS011;56800;52.142;5.364;2022-10-31T05:52:57;161.52;;;14.70;;
69594;SDS011;56800;52.142;5.364;2022-10-31T05:55:26;33.70;;;12.43;;
69594;SDS011;56800;52.142;5.364;2022-10-31T05:57:54;31.10;;;12.63;;
69594;SDS011;56800;52.142;5.364;2022-10-31T06:00:21;32.73;;;12.93;;
69594;SDS011;56800;52.142;5.364;2022-10-31T06:02:49;246.48;;;14.18;;
69594;SDS011;56800;52.142;5.364;2022-10-31T06:05:15;216.98;;;14.70;;
69594;SDS011;56800;52.142;5.364;2022-10-31T06:07:42;48.17;;;12.10;;
69594;SDS011;56800;52.142;5.364;2022-10-31T06:10:09;41.15;;;11.90;;
69594;SDS011;56800;52.142;5.364;2022-10-31T06:12:35;32.87;;;11.60;;
69594;SDS011;56800;52.142;5.364;2022-10-31T06:15:04;24.38;;;11.68;;
69594;SDS011;56800;52.142;5.364;2022-10-31T06:17:31;25.08;;;11.05;;
69594;SDS011;56800;52.142;5.364;2022-10-31T06:19:59;68.18;;;11.45;;
69594;SDS011;56800;52.142;5.364;2022-10-31T06:22:26;19.25;;;10.55;;
69594;SDS011;56800;52.142;5.364;2022-10-31T06:24:53;26.17;;;10.03;;
69594;SDS011;56800;52.142;5.364;2022-10-31T06:27:20;46.63;;;11.35;;
69594;SDS011;56800;52.142;5.364;2022-10-31T06:29:47;29.63;;;10.75;;
69594;SDS011;56800;52.142;5.364;2022-10-31T06:32:14;20.40;;;10.82;;
69594;SDS011;56800;52.142;5.364;2022-10-31T06:34:41;26.45;;;11.18;;
69594;SDS011;56800;52.142;5.364;2022-10-31T06:37:11;27.63;;;10.33;;
69594;SDS011;56800;52.142;5.364;2022-10-31T06:39:38;16.20;;;10.40;;
69594;SDS011;56800;52.142;5.364;2022-10-31T06:42:05;19.70;;;10.38;;
69594;SDS011;56800;52.142;5.364;2022-10-31T06:44:32;13.95;;;9.95;;
69594;SDS011;56800;52.142;5.364;2022-10-31T06:46:59;19.90;;;10.95;;
69594;SDS011;56800;52.142;5.364;2022-10-31T06:49:25;22.00;;;10.70;;
69594;SDS011;56800;52.142;5.364;2022-10-31T06:51:52;23.77;;;9.95;;
69594;SDS011;56800;52.142;5.364;2022-10-31T06:54:19;18.20;;;10.15;;
69594;SDS011;56800;52.142;5.364;2022-10-31T06:56:46;24.73;;;9.45;;
69594;SDS011;56800;52.142;5.364;2022-10-31T06:59:13;21.75;;;9.75;;
69594;SDS011;56800;52.142;5.364;2022-10-31T07:01:40;17.47;;;9.57;;
69594;SDS011;56800;52.142;5.364;2022-10-31T07:04:10;17.73;;;9.82;;
69594;SDS011;56800;52.142;5.364;2022-10-31T07:06:37;32.38;;;9.82;;
69594;SDS011;56800;52.142;5.364;2022-10-31T07:09:04;15.38;;;10.10;;
69594;SDS011;56800;52.142;5.364;2022-10-31T07:11:31;33.05;;;9.93;;
69594;SDS011;56800;52.142;5.364;2022-10-31T07:13:58;29.33;;;10.30;;
69594;SDS011;56800;52.142;5.364;2022-10-31T07:16:24;75.65;;;10.02;;
69594;SDS011;56800;52.142;5.364;2022-10-31T07:18:51;20.38;;;9.15;;
69594;SDS011;56800;52.142;5.364;2022-10-31T07:21:18;15.25;;;9.60;;
69594;SDS011;56800;52.142;5.364;2022-10-31T07:23:46;18.65;;;9.18;;
69594;SDS011;56800;52.142;5.364;2022-10-31T07:26:14;18.13;;;9.27;;
69594;SDS011;56800;52.142;5.364;2022-10-31T07:28:40;20.83;;;9.85;;
69594;SDS011;56800;52.142;5.364;2022-10-31T07:31:07;21.33;;;9.57;;
69594;SDS011;56800;52.142;5.364;2022-10-31T07:33:33;28.92;;;10.60;;
69594;SDS011;56800;52.142;5.364;2022-10-31T07:36:00;17.80;;;10.27;;
69594;SDS011;56800;52.142;5.364;2022-10-31T07:38:27;18.37;;;10.23;;
69594;SDS011;56800;52.142;5.364;2022-10-31T07:40:54;39.65;;;10.38;;
69594;SDS011;56800;52.142;5.364;2022-10-31T07:43:20;37.05;;;10.23;;
69594;SDS011;56800;52.142;5.364;2022-10-31T07:45:51;17.08;;;10.38;;
69594;SDS011;56800;52.142;5.364;2022-10-31T07:48:18;14.32;;;9.93;;
69594;SDS011;56800;52.142;5.364;2022-10-31T07:50:45;37.87;;;11.43;;
69594;SDS011;56800;52.142;5.364;2022-10-31T07:53:12;19.92;;;10.93;;
69594;SDS011;56800;52.142;5.364;2022-10-31T07:55:40;29.17;;;11.20;;
69594;SDS011;56800;52.142;5.364;2022-10-31T07:58:07;18.50;;;10.90;;
69594;SDS011;56800;52.142;5.364;2022-10-31T08:00:37;18.33;;;11.85;;
69594;SDS011;56800;52.142;5.364;2022-10-31T08:03:09;39.00;;;13.00;;
69594;SDS011;56800;52.142;5.364;2022-10-31T08:05:37;68.00;;;13.55;;
69594;SDS011;56800;52.142;5.364;2022-10-31T08:08:06;21.77;;;12.45;;
69594;SDS011;56800;52.142;5.364;2022-10-31T08:10:33;20.88;;;12.07;;
69594;SDS011;56800;52.142;5.364;2022-10-31T08:13:02;21.17;;;12.00;;
69594;SDS011;56800;52.142;5.364;2022-10-31T08:15:36;19.97;;;12.40;;
69594;SDS011;56800;52.142;5.364;2022-10-31T08:18:05;21.05;;;11.98;;
69594;SDS011;56800;52.142;5.364;2022-10-31T08:20:36;21.15;;;12.90;;
69594;SDS011;56800;52.142;5.364;2022-10-31T08:23:03;24.45;;;14.07;;
69594;SDS011;56800;52.142;5.364;2022-10-31T08:25:32;25.63;;;13.95;;
69594;SDS011;56800;52.142;5.364;2022-10-31T08:28:04;29.60;;;13.80;;
69594;SDS011;56800;52.142;5.364;2022-10-31T08:30:33;25.67;;;13.63;;
69594;SDS011;56800;52.142;5.364;2022-10-31T08:33:11;25.20;;;14.82;;
69594;SDS011;56800;52.142;5.364;2022-10-31T08:35:40;31.65;;;15.40;;
69594;SDS011;56800;52.142;5.364;2022-10-31T08:38:08;27.35;;;15.02;;
69594;SDS011;56800;52.142;5.364;2022-10-31T08:40:36;36.20;;;15.37;;
69594;SDS011;56800;52.142;5.364;2022-10-31T08:43:04;29.65;;;16.23;;
69594;SDS011;56800;52.142;5.364;2022-10-31T08:45:38;28.45;;;15.63;;
69594;SDS011;56800;52.142;5.364;2022-10-31T08:48:08;30.15;;;14.98;;
69594;SDS011;56800;52.142;5.364;2022-10-31T08:50:36;35.08;;;17.33;;
69594;SDS011;56800;52.142;5.364;2022-10-31T08:53:04;33.37;;;17.90;;
69594;SDS011;56800;52.142;5.364;2022-10-31T08:55:35;33.90;;;17.60;;
69594;SDS011;56800;52.142;5.364;2022-10-31T08:58:04;33.67;;;17.88;;
69594;SDS011;56800;52.142;5.364;2022-10-31T09:00:32;36.08;;;18.23;;
69594;SDS011;56800;52.142;5.364;2022-10-31T09:03:01;30.92;;;17.25;;
69594;SDS011;56800;52.142;5.364;2022-10-31T09:05:29;30.63;;;17.47;;
69594;SDS011;56800;52.142;5.364;2022-10-31T09:07:58;28.90;;;16.88;;
69594;SDS011;56800;52.142;5.364;2022-10-31T09:10:27;27.33;;;16.17;;
69594;SDS011;56800;52.142;5.364;2022-10-31T09:12:59;26.48;;;15.25;;
69594;SDS011;56800;52.142;5.364;2022-10-31T09:15:27;33.13;;;15.40;;
69594;SDS011;56800;52.142;5.364;2022-10-31T09:17:54;27.37;;;14.60;;
69594;SDS011;56800;52.142;5.364;2022-10-31T09:20:21;29.52;;;15.27;;
69594;SDS011;56800;52.142;5.364;2022-10-31T09:22:54;24.15;;;14.20;;
69594;SDS011;56800;52.142;5.364;2022-10-31T09:25:25;22.85;;;14.38;;
69594;SDS011;56800;52.142;5.364;2022-10-31T09:27:56;24.05;;;15.93;;
69594;SDS011;56800;52.142;5.364;2022-10-31T09:30:24;25.27;;;14.20;;
69594;SDS011;56800;52.142;5.364;2022-10-31T09:32:56;21.27;;;15.15;;
69594;SDS011;56800;52.142;5.364;2022-10-31T09:35:33;24.17;;;14.32;;
69594;SDS011;56800;52.142;5.364;2022-10-31T09:38:00;21.95;;;14.02;;
69594;SDS011;56800;52.142;5.364;2022-10-31T09:40:31;22.65;;;14.65;;
69594;SDS011;56800;52.142;5.364;2022-10-31T09:43:07;25.33;;;15.03;;
69594;SDS011;56800;52.142;5.364;2022-10-31T09:51:04;20.77;;;14.45;;
69594;SDS011;56800;52.142;5.364;2022-10-31T09:56:16;23.23;;;15.33;;
69594;SDS011;56800;52.142;5.364;2022-10-31T09:58:55;23.65;;;14.90;;
69594;SDS011;56800;52.142;5.364;2022-10-31T10:01:40;22.13;;;14.70;;
69594;SDS011;56800;52.142;5.364;2022-10-31T10:04:43;25.92;;;14.35;;
69594;SDS011;56800;52.142;5.364;2022-10-31T10:07:22;24.10;;;14.80;;
69594;SDS011;56800;52.142;5.364;2022-10-31T10:10:18;25.40;;;15.03;;
69594;SDS011;56800;52.142;5.364;2022-10-31T10:15:39;21.63;;;14.25;;
69594;SDS011;56800;52.142;5.364;2022-10-31T10:26:31;28.23;;;15.45;;
69594;SDS011;56800;52.142;5.364;2022-10-31T10:32:13;26.85;;;15.90;;
69594;SDS011;56800;52.142;5.364;2022-10-31T10:34:49;26.45;;;15.80;;
69594;SDS011;56800;52.142;5.364;2022-10-31T10:39:53;25.88;;;15.57;;
69594;SDS011;56800;52.142;5.364;2022-10-31T10:42:56;24.13;;;15.65;;
69594;SDS011;56800;52.142;5.364;2022-10-31T10:46:00;30.27;;;16.00;;
69594;SDS011;56800;52.142;5.364;2022-10-31T10:48:55;24.10;;;14.85;;
69594;SDS011;56800;52.142;5.364;2022-10-31T10:51:37;24.80;;;14.40;;
69594;SDS011;56800;52.142;5.364;2022-10-31T10:57:27;23.95;;;13.73;;
69594;SDS011;56800;52.142;5.364;2022-10-31T11:00:14;22.60;;;14.07;;
69594;SDS011;56800;52.142;5.364;2022-10-31T11:02:44;25.13;;;15.38;;
69594;SDS011;56800;52.142;5.364;2022-10-31T11:05:20;28.10;;;14.63;;
69594;SDS011;56800;52.142;5.364;2022-10-31T11:07:50;24.05;;;14.27;;
69594;SDS011;56800;52.142;5.364;2022-10-31T11:10:18;23.60;;;14.27;;
69594;SDS011;56800;52.142;5.364;2022-10-31T11:12:56;25.88;;;14.10;;
69594;SDS011;56800;52.142;5.364;2022-10-31T11:16:00;23.30;;;14.40;;
69594;SDS011;56800;52.142;5.364;2022-10-31T11:18:31;28.03;;;14.00;;
69594;SDS011;56800;52.142;5.364;2022-10-31T11:21:00;24.02;;;13.48;;
69594;SDS011;56800;52.142;5.364;2022-10-31T11:23:30;25.88;;;13.93;;
69594;SDS011;56800;52.142;5.364;2022-10-31T11:26:00;23.25;;;13.68;;
69594;SDS011;56800;52.142;5.364;2022-10-31T11:28:29;25.58;;;14.27;;
69594;SDS011;56800;52.142;5.364;2022-10-31T11:30:58;33.43;;;13.63;;
69594;SDS011;56800;52.142;5.364;2022-10-31T11:33:28;28.75;;;12.95;;
69594;SDS011;56800;52.142;5.364;2022-10-31T11:36:04;25.25;;;13.10;;
69594;SDS011;56800;52.142;5.364;2022-10-31T11:38:48;24.90;;;14.35;;
69594;SDS011;56800;52.142;5.364;2022-10-31T11:43:53;29.50;;;15.83;;
69594;SDS011;56800;52.142;5.364;2022-10-31T11:46:38;24.60;;;14.05;;
69594;SDS011;56800;52.142;5.364;2022-10-31T11:49:20;30.08;;;15.52;;
69594;SDS011;56800;52.142;5.364;2022-10-31T11:51:52;31.65;;;15.10;;
69594;SDS011;56800;52.142;5.364;2022-10-31T11:54:22;27.83;;;15.77;;
69594;SDS011;56800;52.142;5.364;2022-10-31T11:56:55;31.90;;;16.40;;
69594;SDS011;56800;52.142;5.364;2022-10-31T11:59:29;34.47;;;17.17;;
69594;SDS011;56800;52.142;5.364;2022-10-31T12:01:59;31.73;;;16.38;;
69594;SDS011;56800;52.142;5.364;2022-10-31T12:04:36;31.67;;;17.60;;
69594;SDS011;56800;52.142;5.364;2022-10-31T12:07:09;33.15;;;16.77;;
69594;SDS011;56800;52.142;5.364;2022-10-31T12:09:36;33.93;;;16.77;;
69594;SDS011;56800;52.142;5.364;2022-10-31T12:12:17;36.20;;;19.98;;
69594;SDS011;56800;52.142;5.364;2022-10-31T12:17:33;36.13;;;18.27;;
69594;SDS011;56800;52.142;5.364;2022-10-31T12:20:38;39.03;;;20.02;;
69594;SDS011;56800;52.142;5.364;2022-10-31T12:25:44;35.75;;;19.35;;
69594;SDS011;56800;52.142;5.364;2022-10-31T12:31:39;37.00;;;19.67;;
69594;SDS011;56800;52.142;5.364;2022-10-31T12:48:18;35.30;;;19.30;;
69594;SDS011;56800;52.142;5.364;2022-10-31T12:54:21;40.90;;;20.65;;
69594;SDS011;56800;52.142;5.364;2022-10-31T12:57:30;41.03;;;20.80;;
69594;SDS011;56800;52.142;5.364;2022-10-31T13:00:00;40.83;;;19.27;;
69594;SDS011;56800;52.142;5.364;2022-10-31T13:05:43;37.27;;;20.00;;
69594;SDS011;56800;52.142;5.364;2022-10-31T13:08:30;43.47;;;19.15;;
69594;SDS011;56800;52.142;5.364;2022-10-31T13:11:25;39.03;;;19.10;;
69594;SDS011;56800;52.142;5.364;2022-10-31T13:14:32;36.72;;;19.35;;
69594;SDS011;56800;52.142;5.364;2022-10-31T13:17:05;41.60;;;19.67;;
69594;SDS011;56800;52.142;5.364;2022-10-31T13:19:39;37.60;;;20.60;;
69594;SDS011;56800;52.142;5.364;2022-10-31T13:27:23;41.38;;;19.30;;
69594;SDS011;56800;52.142;5.364;2022-10-31T13:32:46;37.57;;;19.20;;
69594;SDS011;56800;52.142;5.364;2022-10-31T13:35:41;33.78;;;18.10;;
69594;SDS011;56800;52.142;5.364;2022-10-31T13:46:42;33.07;;;17.53;;
69594;SDS011;56800;52.142;5.364;2022-10-31T13:54:42;33.17;;;17.45;;
69594;SDS011;56800;52.142;5.364;2022-10-31T13:57:17;38.33;;;18.00;;
69594;SDS011;56800;52.142;5.364;2022-10-31T13:59:50;40.30;;;18.47;;
69594;SDS011;56800;52.142;5.364;2022-10-31T14:02:26;34.72;;;16.83;;
69594;SDS011;56800;52.142;5.364;2022-10-31T14:04:57;34.92;;;17.70;;
69594;SDS011;56800;52.142;5.364;2022-10-31T14:07:47;33.35;;;17.70;;
69594;SDS011;56800;52.142;5.364;2022-10-31T14:12:50;35.67;;;18.67;;
69594;SDS011;56800;52.142;5.364;2022-10-31T14:15:22;43.42;;;19.50;;
69594;SDS011;56800;52.142;5.364;2022-10-31T14:17:51;35.03;;;19.02;;
69594;SDS011;56800;52.142;5.364;2022-10-31T14:26:05;36.53;;;19.33;;
69594;SDS011;56800;52.142;5.364;2022-10-31T14:28:44;39.88;;;19.50;;
69594;SDS011;56800;52.142;5.364;2022-10-31T14:33:59;31.95;;;17.15;;
69594;SDS011;56800;52.142;5.364;2022-10-31T14:39:31;40.43;;;17.73;;
69594;SDS011;56800;52.142;5.364;2022-10-31T14:42:21;34.08;;;17.98;;
69594;SDS011;56800;52.142;5.364;2022-10-31T14:45:06;41.90;;;19.00;;
69594;SDS011;56800;52.142;5.364;2022-10-31T14:50:57;39.85;;;18.40;;
69594;SDS011;56800;52.142;5.364;2022-10-31T14:53:29;39.20;;;17.60;;
69594;SDS011;56800;52.142;5.364;2022-10-31T14:56:02;40.38;;;18.25;;
69594;SDS011;56800;52.142;5.364;2022-10-31T14:58:41;34.72;;;17.98;;
69594;SDS011;56800;52.142;5.364;2022-10-31T15:01:18;46.67;;;19.15;;
69594;SDS011;56800;52.142;5.364;2022-10-31T15:03:50;35.05;;;19.48;;
69594;SDS011;56800;52.142;5.364;2022-10-31T15:06:40;37.87;;;18.63;;
69594;SDS011;56800;52.142;5.364;2022-10-31T15:09:27;52.92;;;18.98;;
69594;SDS011;56800;52.142;5.364;2022-10-31T15:11:59;40.92;;;18.30;;
69594;SDS011;56800;52.142;5.364;2022-10-31T15:14:30;41.60;;;19.17;;
69594;SDS011;56800;52.142;5.364;2022-10-31T15:16:57;40.25;;;19.33;;
69594;SDS011;56800;52.142;5.364;2022-10-31T15:19:27;35.50;;;18.03;;
69594;SDS011;56800;52.142;5.364;2022-10-31T15:21:57;40.60;;;18.70;;
69594;SDS011;56800;52.142;5.364;2022-10-31T15:24:24;46.90;;;19.40;;
69594;SDS011;56800;52.142;5.364;2022-10-31T15:26:57;40.13;;;18.15;;
69594;SDS011;56800;52.142;5.364;2022-10-31T15:29:30;38.67;;;19.17;;
69594;SDS011;56800;52.142;5.364;2022-10-31T15:31:58;35.50;;;18.57;;
69594;SDS011;56800;52.142;5.364;2022-10-31T15:34:29;38.17;;;17.42;;
69594;SDS011;56800;52.142;5.364;2022-10-31T15:37:04;40.50;;;17.70;;
69594;SDS011;56800;52.142;5.364;2022-10-31T15:39:35;39.67;;;18.08;;
69594;SDS011;56800;52.142;5.364;2022-10-31T15:42:02;36.22;;;18.27;;
69594;SDS011;56800;52.142;5.364;2022-10-31T15:44:33;33.53;;;17.03;;
69594;SDS011;56800;52.142;5.364;2022-10-31T15:47:06;39.80;;;17.15;;
69594;SDS011;56800;52.142;5.364;2022-10-31T15:49:52;34.53;;;17.65;;
69594;SDS011;56800;52.142;5.364;2022-10-31T15:52:28;35.00;;;17.88;;
69594;SDS011;56800;52.142;5.364;2022-10-31T15:57:42;38.77;;;18.33;;
69594;SDS011;56800;52.142;5.364;2022-10-31T16:05:59;38.58;;;18.05;;
69594;SDS011;56800;52.142;5.364;2022-10-31T16:10:57;47.10;;;18.83;;
69594;SDS011;56800;52.142;5.364;2022-10-31T16:13:30;45.00;;;18.30;;
69594;SDS011;56800;52.142;5.364;2022-10-31T16:16:02;39.58;;;18.88;;
69594;SDS011;56800;52.142;5.364;2022-10-31T16:18:56;41.40;;;18.38;;
69594;SDS011;56800;52.142;5.364;2022-10-31T16:21:27;42.70;;;18.83;;
69594;SDS011;56800;52.142;5.364;2022-10-31T16:24:04;47.97;;;18.00;;
69594;SDS011;56800;52.142;5.364;2022-10-31T16:26:49;40.72;;;17.58;;
69594;SDS011;56800;52.142;5.364;2022-10-31T16:29:25;40.78;;;17.27;;
69594;SDS011;56800;52.142;5.364;2022-10-31T16:31:59;44.80;;;17.58;;
69594;SDS011;56800;52.142;5.364;2022-10-31T16:34:26;38.47;;;17.55;;
69594;SDS011;56800;52.142;5.364;2022-10-31T16:36:53;39.77;;;17.60;;
69594;SDS011;56800;52.142;5.364;2022-10-31T16:39:20;35.15;;;16.73;;
69594;SDS011;56800;52.142;5.364;2022-10-31T16:41:48;39.75;;;18.23;;
69594;SDS011;56800;52.142;5.364;2022-10-31T16:44:21;38.40;;;17.52;;
69594;SDS011;56800;52.142;5.364;2022-10-31T16:49:39;37.20;;;17.70;;
69594;SDS011;56800;52.142;5.364;2022-10-31T16:52:07;46.72;;;18.17;;
69594;SDS011;56800;52.142;5.364;2022-10-31T16:54:33;37.55;;;17.45;;
69594;SDS011;56800;52.142;5.364;2022-10-31T16:57:00;35.53;;;17.63;;
69594;SDS011;56800;52.142;5.364;2022-10-31T16:59:29;40.13;;;18.40;;
69594;SDS011;56800;52.142;5.364;2022-10-31T17:01:59;44.30;;;17.07;;
69594;SDS011;56800;52.142;5.364;2022-10-31T17:04:27;36.38;;;18.17;;